createdAt,value
2022-08-09T00:06:12.077Z,100259.82
2022-08-09T00:14:47.429Z,100254.56
2022-08-09T00:24:21.980Z,100245.35
2022-08-09T00:33:54.496Z,100242.69
2022-08-09T00:44:18.804Z,100240.73
2022-08-09T00:53:08.732Z,100234.80
2022-08-09T01:02:37.255Z,100244.08
2022-08-09T01:12:13.162Z,100241.16
2022-08-09T01:21:51.053Z,100237.14
2022-08-09T01:31:23.344Z,100243.39
2022-08-09T01:41:02.836Z,100234.31
2022-08-09T01:50:29.032Z,100234.07
2022-08-09T02:00:08.897Z,100234.05
2022-08-09T02:09:41.744Z,100233.54
2022-08-09T02:19:12.914Z,100246.42
2022-08-09T02:28:47.026Z,100252.02
2022-08-09T02:38:21.757Z,100252.81
2022-08-09T02:47:58.172Z,100250.22
2022-08-09T02:57:27.559Z,100246.61
2022-08-09T03:07:07.383Z,100248.68
2022-08-09T03:16:38.497Z,100240.72
2022-08-09T03:26:11.660Z,100259.16
2022-08-09T03:35:44.631Z,100266.45
2022-08-09T03:46:02.897Z,100272.06
2022-08-09T03:54:52.057Z,100278.05
2022-08-09T04:04:25.831Z,100284.17
2022-08-09T04:14:38.050Z,100288.47
2022-08-09T04:23:35.756Z,100293.34
2022-08-09T04:33:10.076Z,100298.02
2022-08-09T04:42:42.113Z,100304.88
2022-08-09T04:52:18.298Z,100321.45
2022-08-09T05:01:51.319Z,100328.96
2022-08-09T05:11:23.971Z,100336.06
2022-08-09T05:20:58.374Z,100339.20
2022-08-09T05:30:32.974Z,100353.20
2022-08-09T05:40:09.100Z,100363.17
2022-08-09T05:50:09.113Z,100369.75
2022-08-09T05:59:16.416Z,100370.05
2022-08-09T06:08:52.606Z,100374.36
2022-08-09T06:18:26.135Z,100378.25
2022-08-09T06:28:01.988Z,100380.74
2022-08-09T06:29:04.822Z,100379.98
2022-08-09T06:38:42.965Z,100383.66
2022-08-09T06:39:49.401Z,100386.77
2022-08-09T06:40:47.744Z,100386.00
2022-08-09T06:42:06.433Z,100385.48
2022-08-09T06:51:24.236Z,100394.43
2022-08-09T06:52:26.836Z,100388.52
2022-08-09T06:53:33.126Z,100384.38
2022-08-09T07:03:05.442Z,100394.03
2022-08-09T07:04:05.776Z,100399.87
2022-08-09T07:05:10.036Z,100398.18
2022-08-09T07:06:12.429Z,100396.38
2022-08-09T07:07:59.241Z,100396.81
2022-08-09T07:08:17.386Z,100397.77
2022-08-09T07:09:53.838Z,100401.90
2022-08-09T07:10:30.049Z,100405.25
2022-08-09T07:11:34.146Z,100403.96
2022-08-09T07:12:38.114Z,100404.06
2022-08-09T07:13:44.783Z,100408.30
2022-08-09T07:14:35.315Z,100406.27
2022-08-09T07:15:53.635Z,100409.19
2022-08-09T07:16:44.124Z,100410.47
2022-08-09T07:17:52.749Z,100410.19
2022-08-09T07:18:47.427Z,100413.88
2022-08-09T07:19:50.714Z,100410.78
2022-08-09T07:20:51.747Z,100415.69
2022-08-09T07:21:57.978Z,100413.44
2022-08-09T07:22:59.796Z,100412.20
2022-08-09T07:24:04.851Z,100414.93
2022-08-09T07:25:09.520Z,100421.42
2022-08-09T07:34:38.829Z,100422.97
2022-08-09T07:35:53.730Z,100424.80
2022-08-09T07:36:47.287Z,100421.75
2022-08-09T07:37:48.049Z,100424.59
2022-08-09T07:38:56.726Z,100418.19
2022-08-09T07:39:51.381Z,100424.47
2022-08-09T07:41:10.934Z,100422.56
2022-08-09T07:41:57.793Z,100421.53
2022-08-09T07:52:02.966Z,100415.05
2022-08-09T07:52:36.403Z,100418.89
2022-08-09T07:54:01.815Z,100417.56
2022-08-09T07:54:41.300Z,100413.81
2022-08-09T07:56:02.987Z,100416.92
2022-08-09T07:56:49.453Z,100410.94
2022-08-09T07:57:50.209Z,100412.30
2022-08-09T07:58:54.274Z,100411.88
2022-08-09T08:00:03.231Z,100417.13
2022-08-09T08:01:05.918Z,100418.08
2022-08-09T08:02:01.645Z,100416.91
2022-08-09T08:03:04.412Z,100417.32
2022-08-09T08:04:10.238Z,100421.47
2022-08-09T08:05:17.814Z,100423.48
2022-08-09T08:06:14.297Z,100425.74
2022-08-09T08:08:06.453Z,100426.67
2022-08-09T08:08:44.744Z,100427.53
2022-08-09T08:09:35.337Z,100426.98
2022-08-09T08:10:27.209Z,100421.35
2022-08-09T08:12:09.577Z,100424.25
2022-08-09T08:12:31.024Z,100428.77
2022-08-09T08:13:39.977Z,100430.64
2022-08-09T08:14:38.951Z,100427.10
2022-08-09T08:15:41.281Z,100425.98
2022-08-09T08:16:51.021Z,100431.98
2022-08-09T08:17:52.703Z,100427.86
2022-08-09T08:18:50.377Z,100425.27
2022-08-09T08:19:54.332Z,100434.56
2022-08-09T08:20:56.769Z,100433.20
2022-08-09T08:21:59.206Z,100431.31
2022-08-09T08:23:03.935Z,100437.86
2022-08-09T08:24:11.634Z,100431.47
2022-08-09T08:25:13.361Z,100432.94
2022-08-09T08:26:13.609Z,100430.52
2022-08-09T08:27:16.421Z,100423.95
2022-08-09T08:28:26.265Z,100432.13
2022-08-09T08:29:27.518Z,100430.73
2022-08-09T08:30:24.975Z,100427.84
2022-08-09T08:31:39.505Z,100423.10
2022-08-09T08:32:33.039Z,100425.48
2022-08-09T08:33:40.940Z,100427.27
2022-08-09T08:34:41.370Z,100427.44
2022-08-09T08:35:53.215Z,100423.97
2022-08-09T08:36:47.297Z,100425.41
2022-08-09T08:37:59.735Z,100430.98
2022-08-09T08:38:53.838Z,100432.77
2022-08-09T08:39:56.278Z,100427.73
2022-08-09T08:40:58.703Z,100425.89
2022-08-09T08:42:01.222Z,100426.83
2022-08-09T08:43:08.889Z,100425.70
2022-08-09T08:44:08.007Z,100432.58
2022-08-09T08:45:12.025Z,100429.49
2022-08-09T08:46:32.830Z,100428.63
2022-08-09T08:47:17.153Z,100430.25
2022-08-09T08:48:21.258Z,100430.62
2022-08-09T08:57:57.043Z,100440.21
2022-08-09T08:58:55.317Z,100438.88
2022-08-09T08:59:57.839Z,100437.31
2022-08-09T09:01:02.043Z,100435.61
2022-08-09T09:02:06.011Z,100436.44
2022-08-09T09:03:12.196Z,100441.42
2022-08-09T09:04:12.182Z,100444.19
2022-08-09T09:05:14.686Z,100440.48
2022-08-09T09:06:17.163Z,100437.92
2022-08-09T09:07:21.247Z,100437.04
2022-08-09T09:08:29.583Z,100441.16
2022-08-09T09:09:41.361Z,100441.30
2022-08-09T09:10:28.603Z,100440.34
2022-08-09T09:11:33.739Z,100442.69
2022-08-09T09:12:34.443Z,100443.23
2022-08-09T09:13:42.296Z,100432.75
2022-08-09T09:14:40.219Z,100437.97
2022-08-09T09:15:42.637Z,100443.14
2022-08-09T09:16:46.712Z,100441.06
2022-08-09T09:17:52.683Z,100436.77
2022-08-09T09:18:59.683Z,100439.98
2022-08-09T09:19:55.679Z,100441.31
2022-08-09T09:20:58.006Z,100444.05
2022-08-09T09:22:02.527Z,100433.78
2022-08-09T09:23:02.937Z,100436.25
2022-08-09T09:24:10.284Z,100438.41
2022-08-09T09:26:02.753Z,100441.58
2022-08-09T09:26:13.391Z,100443.60
2022-08-09T09:27:22.282Z,100446.03
2022-08-09T09:28:21.244Z,100444.84
2022-08-09T09:29:22.391Z,100445.35
2022-08-09T09:30:39.876Z,100443.13
2022-08-09T09:32:02.039Z,100446.42
2022-08-09T09:32:32.676Z,100454.40
2022-08-09T09:33:44.579Z,100443.34
2022-08-09T09:34:39.324Z,100440.22
2022-08-09T09:35:45.011Z,100439.25
2022-08-09T09:36:46.857Z,100445.14
2022-08-09T09:37:48.094Z,100442.94
2022-08-09T09:38:50.538Z,100440.67
2022-08-09T09:39:55.272Z,100436.39
2022-08-09T09:40:55.562Z,100441.74
2022-08-09T09:41:58.064Z,100437.37
2022-08-09T09:43:00.551Z,100434.91
2022-08-09T09:44:10.398Z,100438.46
2022-08-09T09:45:07.013Z,100438.40
2022-08-09T09:47:12.043Z,100443.83
2022-08-09T09:48:14.551Z,100437.14
2022-08-09T09:49:17.006Z,100431.47
2022-08-09T09:50:19.541Z,100435.04
2022-08-09T09:51:25.946Z,100437.05
2022-08-09T09:52:37.116Z,100434.22
2022-08-09T09:53:34.367Z,100435.27
2022-08-09T09:54:31.155Z,100435.30
2022-08-09T09:55:33.696Z,100436.70
2022-08-09T09:56:37.775Z,100438.16
2022-08-09T09:58:00.387Z,100433.19
2022-08-09T09:58:45.705Z,100435.34
2022-08-09T09:59:48.072Z,100440.59
2022-08-09T10:00:53.668Z,100442.58
2022-08-09T10:01:53.096Z,100440.55
2022-08-09T10:02:55.626Z,100444.78
2022-08-09T10:04:01.555Z,100444.25
2022-08-09T10:05:01.965Z,100440.09
2022-08-09T10:06:06.075Z,100437.70
2022-08-09T10:07:10.258Z,100437.06
2022-08-09T10:08:26.105Z,100436.53
2022-08-09T10:09:22.030Z,100428.35
2022-08-09T10:10:18.459Z,100434.13
2022-08-09T10:11:54.104Z,100433.02
2022-08-09T10:12:28.319Z,100436.91
2022-08-09T10:13:42.946Z,100435.01
2022-08-09T10:14:33.281Z,100436.41
2022-08-09T10:15:51.169Z,100429.78
2022-08-09T10:16:56.361Z,100426.06
2022-08-09T10:17:51.344Z,100428.14
2022-08-09T10:18:51.150Z,100427.47
2022-08-09T10:19:52.101Z,100425.05
2022-08-09T10:20:52.824Z,100426.97
2022-08-09T10:21:56.762Z,100425.05
2022-08-09T10:23:00.753Z,100426.97
2022-08-09T10:24:03.835Z,100427.22
2022-08-09T10:25:10.855Z,100425.31
2022-08-09T10:26:10.939Z,100422.44
2022-08-09T10:27:10.176Z,100421.29
2022-08-09T10:28:11.705Z,100419.23
2022-08-09T10:29:21.557Z,100420.50
2022-08-09T10:32:40.474Z,100416.96
2022-08-09T10:33:29.455Z,100414.19
2022-08-09T10:34:33.363Z,100419.55
2022-08-09T10:35:32.025Z,100415.83
2022-08-09T10:36:36.110Z,100418.05
2022-08-09T10:37:38.911Z,100420.73
2022-08-09T10:38:55.079Z,100420.96
2022-08-09T10:39:49.103Z,100417.23
2022-08-09T10:40:49.975Z,100417.69
2022-08-09T10:41:51.455Z,100408.64
2022-08-09T10:42:53.831Z,100410.35
2022-08-09T10:44:00.203Z,100410.88
2022-08-09T10:45:01.962Z,100410.02
2022-08-09T10:46:05.913Z,100411.20
2022-08-09T10:47:20.673Z,100411.38
2022-08-09T10:48:26.465Z,100408.67
2022-08-09T10:49:14.818Z,100412.22
2022-08-09T10:50:17.350Z,100414.64
2022-08-09T10:51:19.810Z,100405.58
2022-08-09T10:52:22.272Z,100405.65
2022-08-09T10:53:26.395Z,100406.41
2022-08-09T10:54:28.791Z,100408.14
2022-08-09T10:55:35.599Z,100413.53
2022-08-09T10:56:36.828Z,100406.72
2022-08-09T10:57:41.733Z,100410.69
2022-08-09T10:58:43.098Z,100411.71
2022-08-09T10:59:55.841Z,100411.33
2022-08-09T11:00:51.192Z,100409.00
2022-08-09T11:03:07.191Z,100408.38
2022-08-09T11:03:07.457Z,100409.51
2022-08-09T11:04:02.049Z,100402.55
2022-08-09T11:04:59.600Z,100403.86
2022-08-09T11:06:02.083Z,100406.09
2022-08-09T11:07:04.546Z,100406.77
2022-08-09T11:08:08.651Z,100399.56
2022-08-09T11:09:15.659Z,100412.20
2022-08-09T11:10:14.924Z,100408.39
2022-08-09T11:11:17.431Z,100408.61
2022-08-09T11:12:20.296Z,100409.02
2022-08-09T11:13:49.591Z,100406.47
2022-08-09T11:14:27.925Z,100403.74
2022-08-09T11:15:33.910Z,100405.77
2022-08-09T11:16:33.774Z,100395.80
2022-08-09T11:17:34.151Z,100402.45
2022-08-09T11:18:39.235Z,100397.27
2022-08-09T11:20:08.222Z,100399.59
2022-08-09T11:20:46.188Z,100400.22
2022-08-09T11:21:54.965Z,100404.99
2022-08-09T11:22:55.743Z,100408.16
2022-08-09T11:23:55.041Z,100405.58
2022-08-09T11:24:57.661Z,100402.43
2022-08-09T11:26:00.150Z,100399.84
2022-08-09T11:27:06.718Z,100399.58
2022-08-09T11:28:27.675Z,100393.66
2022-08-09T11:29:10.524Z,100400.75
2022-08-09T11:30:21.912Z,100402.02
2022-08-09T11:31:15.540Z,100410.98
2022-08-09T11:32:18.022Z,100409.59
2022-08-09T11:33:20.554Z,100408.16
2022-08-09T11:34:23.053Z,100405.88
2022-08-09T11:35:26.793Z,100414.00
2022-08-09T11:36:30.586Z,100411.83
2022-08-09T11:37:31.393Z,100408.55
2022-08-09T11:38:41.285Z,100407.64
2022-08-09T11:39:40.944Z,100411.28
2022-08-09T11:40:43.381Z,100408.39
2022-08-09T11:41:45.885Z,100409.03
2022-08-09T11:42:49.973Z,100409.46
2022-08-09T11:43:52.418Z,100409.52
2022-08-09T11:44:57.182Z,100411.45
2022-08-09T11:46:00.482Z,100405.39
2022-08-09T11:47:02.891Z,100410.42
2022-08-09T11:48:12.130Z,100404.79
2022-08-09T11:49:09.404Z,100405.39
2022-08-09T11:50:52.706Z,100412.75
2022-08-09T11:51:19.651Z,100412.61
2022-08-09T11:52:49.871Z,100409.01
2022-08-09T11:53:28.206Z,100408.56
2022-08-09T11:54:29.106Z,100408.81
2022-08-09T11:55:34.814Z,100401.70
2022-08-09T12:05:00.548Z,100405.03
2022-08-09T12:06:04.541Z,100399.91
2022-08-09T12:07:08.916Z,100400.02
2022-08-09T12:08:19.924Z,100399.84
2022-08-09T12:09:15.141Z,100402.53
2022-08-09T12:10:38.150Z,100403.00
2022-08-09T12:11:21.601Z,100404.19
2022-08-09T12:12:28.964Z,100406.30
2022-08-09T12:14:08.771Z,100402.56
2022-08-09T12:14:37.374Z,100397.78
2022-08-09T12:15:48.499Z,100397.81
2022-08-09T12:16:38.061Z,100400.09
2022-08-09T12:17:43.142Z,100397.69
2022-08-09T12:18:43.373Z,100394.83
2022-08-09T12:19:45.879Z,100389.91
2022-08-09T12:20:48.446Z,100383.03
2022-08-09T12:21:51.431Z,100384.44
2022-08-09T12:22:55.677Z,100386.28
2022-08-09T12:24:06.639Z,100378.52
2022-08-09T12:24:59.912Z,100377.68
2022-08-09T12:26:02.422Z,100380.88
2022-08-09T12:28:57.830Z,100376.05
2022-08-09T12:29:01.201Z,100377.48
2022-08-09T12:29:29.868Z,100375.44
2022-08-09T12:30:29.903Z,100374.51
2022-08-09T12:31:30.755Z,100382.93
2022-08-09T12:32:19.041Z,100396.56
2022-08-09T12:33:21.389Z,100374.41
2022-08-09T12:34:25.519Z,100377.11
2022-08-09T12:35:27.970Z,100371.31
2022-08-09T12:36:33.555Z,100370.34
2022-08-09T12:37:37.819Z,100356.96
2022-08-09T12:38:38.826Z,100357.30
2022-08-09T12:39:40.940Z,100359.50
2022-08-09T12:40:43.399Z,100361.81
2022-08-09T12:41:45.906Z,100354.63
2022-08-09T12:42:50.107Z,100352.85
2022-08-09T12:44:04.489Z,100356.81
2022-08-09T12:44:54.919Z,100358.75
2022-08-09T12:45:59.536Z,100360.70
2022-08-09T12:47:03.035Z,100363.41
2022-08-09T12:48:05.366Z,100364.11
2022-08-09T12:49:09.469Z,100356.99
2022-08-09T12:50:11.806Z,100356.95
2022-08-09T12:51:14.347Z,100359.08
2022-08-09T12:52:16.826Z,100358.41
2022-08-09T12:53:21.041Z,100355.20
2022-08-09T12:54:21.867Z,100353.25
2022-08-09T12:56:13.250Z,100353.47
2022-08-09T12:56:29.917Z,100357.81
2022-08-09T12:57:30.890Z,100352.59
2022-08-09T12:58:35.013Z,100353.58
2022-08-09T12:59:39.893Z,100348.70
2022-08-09T13:00:41.572Z,100351.08
2022-08-09T13:01:47.162Z,100349.09
2022-08-09T13:02:46.442Z,100359.26
2022-08-09T13:03:52.994Z,100356.95
2022-08-09T13:04:52.919Z,100352.83
2022-08-09T13:06:13.392Z,100351.09
2022-08-09T13:06:59.341Z,100355.20
2022-08-09T13:08:01.811Z,100350.27
2022-08-09T13:09:06.316Z,100351.33
2022-08-09T13:10:08.325Z,100353.07
2022-08-09T13:11:13.031Z,100342.27
2022-08-09T13:12:13.258Z,100348.87
2022-08-09T13:13:17.352Z,100348.72
2022-08-09T13:14:38.797Z,100347.70
2022-08-09T13:15:23.685Z,100344.58
2022-08-09T13:16:26.218Z,100342.91
2022-08-09T13:17:44.643Z,100340.75
2022-08-09T13:18:32.835Z,100343.20
2022-08-09T13:20:08.244Z,100347.48
2022-08-09T13:20:50.045Z,100342.53
2022-08-09T13:22:34.933Z,100344.56
2022-08-09T13:23:00.075Z,100346.83
2022-08-09T13:24:06.093Z,100323.56
2022-08-09T13:24:53.909Z,100339.14
2022-08-09T13:25:56.079Z,100338.11
2022-08-09T13:26:57.331Z,100338.95
2022-08-09T13:28:01.453Z,100341.82
2022-08-09T13:29:03.842Z,100339.73
2022-08-09T13:30:49.924Z,100338.48
2022-08-09T13:31:11.844Z,100338.83
2022-08-09T13:32:18.287Z,100335.64
2022-08-09T13:33:16.834Z,100333.02
2022-08-09T13:34:17.825Z,100331.87
2022-08-09T13:35:22.018Z,100330.77
2022-08-09T13:36:40.028Z,100329.93
2022-08-09T13:37:48.980Z,100327.14
2022-08-09T13:38:33.078Z,100321.86
2022-08-09T13:41:21.323Z,100329.09
2022-08-09T13:41:22.012Z,100325.91
2022-08-09T13:41:56.946Z,100332.06
2022-08-09T13:42:40.920Z,100333.02
2022-08-09T13:43:43.422Z,100331.13
2022-08-09T13:44:45.954Z,100334.72
2022-08-09T13:46:08.985Z,100325.27
2022-08-09T13:47:18.310Z,100325.22
2022-08-09T13:47:59.106Z,100324.70
2022-08-09T13:49:00.771Z,100315.34
2022-08-09T13:50:03.037Z,100316.31
2022-08-09T13:51:07.100Z,100324.98
2022-08-09T13:52:09.684Z,100320.78
2022-08-09T13:53:11.946Z,100316.10
2022-08-09T13:54:14.460Z,100315.97
2022-08-09T13:55:20.978Z,100317.81
2022-08-09T13:56:22.664Z,100320.58
2022-08-09T13:57:36.111Z,100324.72
2022-08-09T13:58:27.559Z,100322.13
2022-08-09T13:59:37.049Z,100325.13
2022-08-09T14:00:32.590Z,100324.31
2022-08-09T14:01:55.985Z,100328.86
2022-08-09T14:02:42.072Z,100326.97
2022-08-09T14:04:02.124Z,100319.97
2022-08-09T14:04:49.348Z,100317.66
2022-08-09T14:05:57.556Z,100321.55
2022-08-09T14:06:50.529Z,100319.53
2022-08-09T14:07:53.048Z,100318.70
2022-08-09T14:08:57.148Z,100317.09
2022-08-09T14:10:01.115Z,100319.13
2022-08-09T14:11:09.915Z,100322.06
2022-08-09T14:12:15.346Z,100319.44
2022-08-09T14:13:21.730Z,100318.97
2022-08-09T14:14:25.094Z,100320.95
2022-08-09T14:16:02.100Z,100318.39
2022-08-09T14:16:22.457Z,100319.03
2022-08-09T14:17:22.892Z,100320.29
2022-08-09T14:18:27.452Z,100321.06
2022-08-09T14:19:30.254Z,100318.05
2022-08-09T14:20:31.981Z,100319.75
2022-08-09T14:21:34.509Z,100318.95
2022-08-09T14:22:36.986Z,100319.03
2022-08-09T14:23:40.273Z,100317.98
2022-08-09T14:24:47.008Z,100320.88
2022-08-09T14:25:47.649Z,100319.69
2022-08-09T14:26:51.404Z,100314.38
2022-08-09T14:27:57.241Z,100314.83
2022-08-09T14:28:56.576Z,100316.28
2022-08-09T14:30:04.510Z,100315.27
2022-08-09T14:31:03.157Z,100314.63
2022-08-09T14:32:11.024Z,100312.67
2022-08-09T14:33:11.083Z,100307.55
2022-08-09T14:34:12.067Z,100308.73
2022-08-09T14:35:16.160Z,100310.48
2022-08-09T14:36:20.074Z,100305.38
2022-08-09T14:37:21.125Z,100296.95
2022-08-09T14:38:25.188Z,100302.29
2022-08-09T14:39:40.724Z,100303.56
2022-08-09T14:40:38.984Z,100296.06
2022-08-09T14:41:34.971Z,100303.62
2022-08-09T14:42:35.315Z,100307.27
2022-08-09T14:43:43.127Z,100301.48
2022-08-09T14:44:49.016Z,100305.42
2022-08-09T14:46:41.015Z,100302.21
2022-08-09T14:46:58.310Z,100303.34
2022-08-09T14:47:57.667Z,100301.34
2022-08-09T14:48:51.937Z,100301.52
2022-08-09T14:50:01.788Z,100311.13
2022-08-09T14:50:56.838Z,100306.91
2022-08-09T14:52:01.975Z,100308.56
2022-08-09T14:53:06.221Z,100309.04
2022-08-09T14:54:07.326Z,100307.94
2022-08-09T14:55:09.824Z,100308.04
2022-08-09T14:56:13.225Z,100310.23
2022-08-09T14:57:14.885Z,100310.52
2022-08-09T14:58:19.000Z,100303.17
2022-08-09T14:59:22.973Z,100303.08
2022-08-09T15:00:27.156Z,100301.30
2022-08-09T15:01:29.398Z,100296.83
2022-08-09T15:02:32.027Z,100296.61
2022-08-09T15:03:35.966Z,100301.55
2022-08-09T15:04:38.393Z,100301.81
2022-08-09T15:05:45.987Z,100297.70
2022-08-09T15:06:49.516Z,100287.91
2022-08-09T15:07:55.061Z,100291.03
2022-08-09T15:08:52.685Z,100290.28
2022-08-09T15:10:04.285Z,100288.91
2022-08-09T15:11:00.161Z,100293.09
2022-08-09T15:11:59.045Z,100298.46
2022-08-09T15:13:03.047Z,100298.79
2022-08-09T15:14:04.910Z,100293.40
2022-08-09T15:15:08.510Z,100294.94
2022-08-09T15:16:10.659Z,100293.05
2022-08-09T15:17:14.746Z,100287.66
2022-08-09T15:18:17.165Z,100291.19
2022-08-09T15:19:21.310Z,100288.09
2022-08-09T15:21:54.232Z,100295.59
2022-08-09T15:21:54.324Z,100291.53
2022-08-09T15:22:30.319Z,100290.94
2022-08-09T15:24:02.823Z,100290.67
2022-08-09T15:24:35.253Z,100288.34
2022-08-09T15:25:39.431Z,100285.13
2022-08-09T15:26:45.551Z,100288.02
2022-08-09T15:27:47.518Z,100286.72
2022-08-09T15:28:54.637Z,100294.25
2022-08-09T15:30:48.078Z,100290.41
2022-08-09T15:31:01.612Z,100288.41
2022-08-09T15:31:56.049Z,100291.80
2022-08-09T15:32:58.597Z,100287.06
2022-08-09T15:34:04.477Z,100291.02
2022-08-09T15:35:18.025Z,100288.58
2022-08-09T15:36:07.647Z,100292.25
2022-08-09T15:37:10.210Z,100268.61
2022-08-09T15:38:12.664Z,100289.89
2022-08-09T15:39:15.211Z,100282.53
2022-08-09T15:40:19.913Z,100284.02
2022-08-09T15:41:21.976Z,100281.55
2022-08-09T15:42:25.877Z,100279.22
2022-08-09T15:43:30.049Z,100273.41
2022-08-09T15:44:32.528Z,100275.45
2022-08-09T15:45:51.578Z,100277.33
2022-08-09T15:46:38.646Z,100280.88
2022-08-09T15:47:47.300Z,100278.49
2022-08-09T15:48:43.730Z,100272.63
2022-08-09T15:50:00.906Z,100276.78
2022-08-09T15:50:50.439Z,100276.83
2022-08-09T15:52:02.596Z,100280.95
2022-08-09T15:53:05.948Z,100275.24
2022-08-09T15:54:03.083Z,100273.55
2022-08-09T15:55:01.820Z,100268.54
2022-08-09T15:56:21.306Z,100238.91
2022-08-09T15:57:07.303Z,100272.41
2022-08-09T15:58:09.318Z,100275.62
2022-08-09T15:59:13.507Z,100268.95
2022-08-09T16:00:17.140Z,100271.12
2022-08-09T16:01:19.907Z,100271.45
2022-08-09T16:02:37.746Z,100267.22
2022-08-09T16:03:26.603Z,100267.63
2022-08-09T16:04:28.798Z,100266.50
2022-08-09T16:05:36.375Z,100265.50
2022-08-09T16:06:35.964Z,100267.19
2022-08-09T16:07:39.203Z,100267.49
2022-08-09T16:08:44.338Z,100267.99
2022-08-09T16:09:51.715Z,100264.15
2022-08-09T16:10:55.385Z,100264.08
2022-08-09T16:11:57.060Z,100259.72
2022-08-09T16:12:55.299Z,100263.83
2022-08-09T16:14:02.293Z,100262.48
2022-08-09T16:15:03.233Z,100267.75
2022-08-09T16:16:12.388Z,100262.36
2022-08-09T16:17:09.696Z,100263.29
2022-08-09T16:18:13.699Z,100262.66
2022-08-09T16:19:16.117Z,100257.63
2022-08-09T16:20:20.202Z,100254.72
2022-08-09T16:21:25.026Z,100257.50
2022-08-09T16:22:25.129Z,100263.93
2022-08-09T16:23:27.705Z,100262.38
2022-08-09T16:24:33.277Z,100260.42
2022-08-09T16:25:39.737Z,100264.20
2022-08-09T16:26:37.013Z,100262.45
2022-08-09T16:27:41.019Z,100259.75
2022-08-09T16:28:45.030Z,100258.06
2022-08-09T16:29:49.746Z,100260.47
2022-08-09T16:30:58.617Z,100259.49
2022-08-09T16:32:10.960Z,100256.98
2022-08-09T16:32:58.024Z,100252.45
2022-08-09T16:34:02.687Z,100259.08
2022-08-09T16:35:03.114Z,100261.48
2022-08-09T16:36:11.967Z,100267.41
2022-08-09T16:37:09.548Z,100260.95
2022-08-09T16:38:12.092Z,100263.13
2022-08-09T16:39:14.635Z,100261.35
2022-08-09T16:40:20.815Z,100262.37
2022-08-09T16:41:22.076Z,100255.54
2022-08-09T16:42:24.356Z,100257.89
2022-08-09T16:43:26.586Z,100258.41
2022-08-09T16:44:28.713Z,100262.45
2022-08-09T16:45:31.325Z,100256.47
2022-08-09T16:46:33.851Z,100260.53
2022-08-09T16:48:37.543Z,100262.12
2022-08-09T16:48:53.014Z,100258.20
2022-08-09T16:50:28.535Z,100259.61
2022-08-09T16:50:49.826Z,100261.81
2022-08-09T16:51:53.923Z,100259.92
2022-08-09T16:52:50.137Z,100263.47
2022-08-09T16:54:16.338Z,100253.18
2022-08-09T16:54:55.533Z,100257.52
2022-08-09T16:56:02.653Z,100253.20
2022-08-09T16:57:02.063Z,100260.28
2022-08-09T16:58:08.292Z,100257.02
2022-08-09T16:59:10.427Z,100259.80
2022-08-09T17:00:12.359Z,100254.71
2022-08-09T17:01:14.883Z,100256.30
2022-08-09T17:02:17.713Z,100256.00
2022-08-09T17:03:22.731Z,100259.79
2022-08-09T17:04:26.232Z,100254.10
2022-08-09T17:06:02.941Z,100255.25
2022-08-09T17:06:32.278Z,100249.86
2022-08-09T17:08:41.970Z,100252.02
2022-08-09T17:08:42.218Z,100249.17
2022-08-09T17:09:44.824Z,100250.33
2022-08-09T17:10:41.835Z,100252.16
2022-08-09T17:11:48.096Z,100252.14
2022-08-09T17:12:48.340Z,100256.06
2022-08-09T17:14:01.476Z,100254.59
2022-08-09T17:14:57.764Z,100250.86
2022-08-09T17:15:58.763Z,100254.53
2022-08-09T17:17:02.250Z,100257.41
2022-08-09T17:18:03.877Z,100253.19
2022-08-09T17:19:07.969Z,100257.17
2022-08-09T17:20:29.513Z,100253.21
2022-08-09T17:21:15.888Z,100255.52
2022-08-09T17:22:23.576Z,100257.94
2022-08-09T17:23:22.131Z,100254.49
2022-08-09T17:24:28.574Z,100255.80
2022-08-09T17:25:30.338Z,100254.55
2022-08-09T17:26:31.458Z,100257.23
2022-08-09T17:27:32.115Z,100256.55
2022-08-09T17:28:34.627Z,100256.00
2022-08-09T17:29:37.703Z,100266.38
2022-08-09T17:30:39.633Z,100262.78
2022-08-09T17:31:44.657Z,100261.94
2022-08-09T17:32:46.534Z,100264.98
2022-08-09T17:33:52.504Z,100262.48
2022-08-09T17:35:01.884Z,100259.58
2022-08-09T17:35:55.070Z,100260.22
2022-08-09T17:36:57.630Z,100258.77
2022-08-09T17:38:03.152Z,100258.78
2022-08-09T17:39:05.833Z,100260.30
2022-08-09T17:40:17.086Z,100264.39
2022-08-09T17:41:13.893Z,100264.87
2022-08-09T17:42:40.631Z,100262.25
2022-08-09T17:43:33.254Z,100265.99
2022-08-09T17:44:39.192Z,100265.77
2022-08-09T17:45:27.022Z,100264.69
2022-08-09T17:46:33.925Z,100267.23
2022-08-09T17:47:30.686Z,100268.85
2022-08-09T17:48:33.500Z,100265.48
2022-08-09T17:49:36.239Z,100268.59
2022-08-09T17:50:38.837Z,100266.13
2022-08-09T17:51:41.432Z,100267.09
2022-08-09T17:52:49.105Z,100267.13
2022-08-09T17:53:51.714Z,100265.16
2022-08-09T17:54:54.329Z,100264.14
2022-08-09T17:56:01.145Z,100264.66
2022-08-09T17:57:00.925Z,100264.70
2022-08-09T17:58:05.746Z,100265.82
2022-08-09T17:59:08.938Z,100262.77
2022-08-09T18:00:10.177Z,100265.45
2022-08-09T18:01:15.730Z,100265.22
2022-08-09T18:02:19.600Z,100270.13
2022-08-09T18:12:05.991Z,100263.23
2022-08-09T18:13:38.511Z,100260.69
2022-08-09T18:13:57.653Z,100263.76
2022-08-09T18:14:57.865Z,100269.31
2022-08-09T18:16:07.503Z,100266.91
2022-08-09T18:17:04.467Z,100267.77
2022-08-09T18:18:07.846Z,100268.77
2022-08-09T18:20:52.918Z,100270.56
2022-08-09T18:20:52.977Z,100271.23
2022-08-09T18:21:23.363Z,100269.59
2022-08-09T18:22:20.900Z,100268.82
2022-08-09T18:24:09.241Z,100273.02
2022-08-09T18:24:27.755Z,100267.30
2022-08-09T18:25:51.403Z,100269.37
2022-08-09T18:26:33.990Z,100271.27
2022-08-09T18:27:59.930Z,100269.40
2022-08-09T18:30:34.390Z,100263.98
2022-08-09T18:30:37.590Z,100268.44
2022-08-09T18:30:48.085Z,100264.11
2022-08-09T18:31:51.778Z,100272.62
2022-08-09T18:32:54.187Z,100272.02
2022-08-09T18:33:53.373Z,100267.21
2022-08-09T18:34:53.854Z,100267.09
2022-08-09T18:35:59.642Z,100269.71
2022-08-09T18:36:58.854Z,100267.58
2022-08-09T18:38:01.521Z,100264.86
2022-08-09T18:39:05.655Z,100267.54
2022-08-09T18:40:07.967Z,100269.06
2022-08-09T18:41:10.379Z,100271.77
2022-08-09T18:42:12.902Z,100261.54
2022-08-09T18:43:16.980Z,100268.76
2022-08-09T18:44:19.371Z,100269.16
2022-08-09T18:46:45.588Z,100268.97
2022-08-09T18:46:45.672Z,100267.88
2022-08-09T18:47:32.660Z,100267.23
2022-08-09T18:57:05.714Z,100278.31
2022-08-09T19:06:36.293Z,100278.45
2022-08-09T19:16:07.787Z,100293.80
2022-08-09T19:26:01.721Z,100303.28
2022-08-09T19:35:15.531Z,100310.91
2022-08-09T19:44:51.558Z,100315.72
2022-08-09T19:54:25.877Z,100324.83
2022-08-09T20:04:07.999Z,100330.19